sensor_id;sensor_type;location;lat;lon;timestamp;pressure;altitude;pressure_sealevel;temperature;humidity
4449;BME280;2237;51.870;6.160;2024-03-02T00:00:30;99783.31;;;10.25;100.00
4449;BME280;2237;51.870;6.160;2024-03-02T00:02:56;99782.19;;;10.09;100.00
4449;BME280;2237;51.870;6.160;2024-03-02T00:05:23;99783.28;;;10.27;100.00
4449;BME280;2237;51.870;6.160;2024-03-02T00:07:54;99761.16;;;10.15;100.00
4449;BME280;2237;51.870;6.160;2024-03-02T00:10:24;99771.28;;;10.23;100.00
4449;BME280;2237;51.870;6.160;2024-03-02T00:12:55;99767.16;;;10.17;100.00
4449;BME280;2237;51.870;6.160;2024-03-02T00:18:18;99772.63;;;10.09;100.00
4449;BME280;2237;51.870;6.160;2024-03-02T00:20:45;99767.47;;;10.08;100.00
4449;BME280;2237;51.870;6.160;2024-03-02T00:23:15;99772.63;;;10.09;100.00
4449;BME280;2237;51.870;6.160;2024-03-02T00:26:00;99760.84;;;9.99;100.00
4449;BME280;2237;51.870;6.160;2024-03-02T00:28:29;99770.28;;;10.02;100.00
4449;BME280;2237;51.870;6.160;2024-03-02T00:30:57;99757.97;;;10.07;100.00
4449;BME280;2237;51.870;6.160;2024-03-02T00:33:27;99776.91;;;10.10;100.00
4449;BME280;2237;51.870;6.160;2024-03-02T00:35:56;99766.31;;;10.16;100.00
4449;BME280;2237;51.870;6.160;2024-03-02T00:38:23;99761.72;;;10.23;100.00
4449;BME280;2237;51.870;6.160;2024-03-02T00:40:49;99771.00;;;10.30;100.00
4449;BME280;2237;51.870;6.160;2024-03-02T00:46:12;99766.50;;;10.10;100.00
4449;BME280;2237;51.870;6.160;2024-03-02T00:48:48;99761.94;;;10.17;100.00
4449;BME280;2237;51.870;6.160;2024-03-02T00:51:15;99754.81;;;10.22;100.00
4449;BME280;2237;51.870;6.160;2024-03-02T00:53:41;99770.41;;;10.22;100.00
4449;BME280;2237;51.870;6.160;2024-03-02T00:56:11;99767.66;;;10.27;100.00
4449;BME280;2237;51.870;6.160;2024-03-02T00:58:38;99766.63;;;10.31;100.00
4449;BME280;2237;51.870;6.160;2024-03-02T01:01:05;99772.34;;;10.40;100.00
4449;BME280;2237;51.870;6.160;2024-03-02T01:03:33;99775.34;;;10.30;100.00
4449;BME280;2237;51.870;6.160;2024-03-02T01:06:00;99788.72;;;10.42;100.00
4449;BME280;2237;51.870;6.160;2024-03-02T01:08:27;99782.91;;;10.59;100.00
4449;BME280;2237;51.870;6.160;2024-03-02T01:10:53;99787.19;;;10.60;100.00
4449;BME280;2237;51.870;6.160;2024-03-02T01:13:22;99767.56;;;10.51;100.00
4449;BME280;2237;51.870;6.160;2024-03-02T01:15:49;99790.00;;;10.54;100.00
4449;BME280;2237;51.870;6.160;2024-03-02T01:18:16;99789.91;;;10.57;100.00
4449;BME280;2237;51.870;6.160;2024-03-02T01:20:42;99811.41;;;10.84;100.00
4449;BME280;2237;51.870;6.160;2024-03-02T01:23:09;99796.53;;;10.87;100.00
4449;BME280;2237;51.870;6.160;2024-03-02T01:25:36;99816.25;;;10.93;100.00
4449;BME280;2237;51.870;6.160;2024-03-02T01:28:03;99807.44;;;10.97;100.00
4449;BME280;2237;51.870;6.160;2024-03-02T01:30:30;99821.59;;;11.11;100.00
4449;BME280;2237;51.870;6.160;2024-03-02T01:32:57;99820.06;;;11.06;100.00
4449;BME280;2237;51.870;6.160;2024-03-02T01:35:25;99836.31;;;11.12;100.00
4449;BME280;2237;51.870;6.160;2024-03-02T01:37:53;99828.38;;;11.15;100.00
4449;BME280;2237;51.870;6.160;2024-03-02T01:40:19;99834.50;;;11.14;100.00
4449;BME280;2237;51.870;6.160;2024-03-02T01:42:46;99856.97;;;11.17;99.96
4449;BME280;2237;51.870;6.160;2024-03-02T01:45:13;99853.81;;;11.09;100.00
4449;BME280;2237;51.870;6.160;2024-03-02T01:47:39;99858.72;;;10.95;100.00
4449;BME280;2237;51.870;6.160;2024-03-02T01:50:07;99873.94;;;10.84;100.00
4449;BME280;2237;51.870;6.160;2024-03-02T01:52:33;99878.47;;;10.78;100.00
4449;BME280;2237;51.870;6.160;2024-03-02T01:55:00;99878.50;;;10.77;100.00
4449;BME280;2237;51.870;6.160;2024-03-02T01:57:26;99873.31;;;10.77;100.00
4449;BME280;2237;51.870;6.160;2024-03-02T01:59:53;99877.25;;;10.87;100.00
4449;BME280;2237;51.870;6.160;2024-03-02T02:02:19;99866.53;;;10.73;100.00
4449;BME280;2237;51.870;6.160;2024-03-02T02:04:46;99862.06;;;10.76;100.00
4449;BME280;2237;51.870;6.160;2024-03-02T02:07:13;99859.06;;;10.86;100.00
4449;BME280;2237;51.870;6.160;2024-03-02T02:09:43;99857.59;;;11.02;100.00
4449;BME280;2237;51.870;6.160;2024-03-02T02:12:10;99849.94;;;11.19;100.00
4449;BME280;2237;51.870;6.160;2024-03-02T02:14:36;99847.00;;;11.26;100.00
4449;BME280;2237;51.870;6.160;2024-03-02T02:17:03;99849.97;;;11.39;100.00
4449;BME280;2237;51.870;6.160;2024-03-02T02:19:29;99847.97;;;11.46;100.00
4449;BME280;2237;51.870;6.160;2024-03-02T02:21:56;99854.03;;;11.46;100.00
4449;BME280;2237;51.870;6.160;2024-03-02T02:24:22;99852.22;;;11.48;100.00
4449;BME280;2237;51.870;6.160;2024-03-02T02:26:49;99847.00;;;11.48;100.00
4449;BME280;2237;51.870;6.160;2024-03-02T02:29:15;99853.47;;;11.38;100.00
4449;BME280;2237;51.870;6.160;2024-03-02T02:31:42;99838.53;;;11.43;100.00
4449;BME280;2237;51.870;6.160;2024-03-02T02:34:08;99825.66;;;11.39;100.00
4449;BME280;2237;51.870;6.160;2024-03-02T02:36:37;99824.75;;;11.40;100.00
4449;BME280;2237;51.870;6.160;2024-03-02T02:39:05;99804.16;;;11.33;100.00
4449;BME280;2237;51.870;6.160;2024-03-02T02:41:33;99816.75;;;11.44;100.00
4449;BME280;2237;51.870;6.160;2024-03-02T02:44:00;99811.66;;;11.41;100.00
4449;BME280;2237;51.870;6.160;2024-03-02T02:46:26;99823.56;;;11.47;100.00
4449;BME280;2237;51.870;6.160;2024-03-02T02:48:53;99820.91;;;11.48;100.00
4449;BME280;2237;51.870;6.160;2024-03-02T02:51:20;99809.59;;;11.49;100.00
4449;BME280;2237;51.870;6.160;2024-03-02T02:53:46;99810.78;;;11.41;100.00
4449;BME280;2237;51.870;6.160;2024-03-02T02:56:13;99821.19;;;11.42;100.00
4449;BME280;2237;51.870;6.160;2024-03-02T02:58:40;99826.41;;;11.42;100.00
4449;BME280;2237;51.870;6.160;2024-03-02T03:01:08;99828.34;;;11.37;100.00
4449;BME280;2237;51.870;6.160;2024-03-02T03:03:34;99825.53;;;11.42;100.00
4449;BME280;2237;51.870;6.160;2024-03-02T03:06:01;99820.31;;;11.42;100.00
4449;BME280;2237;51.870;6.160;2024-03-02T03:08:28;99816.88;;;11.41;100.00
4449;BME280;2237;51.870;6.160;2024-03-02T03:10:55;99816.47;;;11.30;100.00
4449;BME280;2237;51.870;6.160;2024-03-02T03:13:21;99826.16;;;11.26;100.00
4449;BME280;2237;51.870;6.160;2024-03-02T03:15:48;99822.78;;;11.24;100.00
4449;BME280;2237;51.870;6.160;2024-03-02T03:18:14;99812.47;;;11.21;100.00
4449;BME280;2237;51.870;6.160;2024-03-02T03:20:41;99801.06;;;11.24;100.00
4449;BME280;2237;51.870;6.160;2024-03-02T03:23:07;99807.66;;;11.32;100.00
4449;BME280;2237;51.870;6.160;2024-03-02T03:25:34;99813.59;;;11.36;100.00
4449;BME280;2237;51.870;6.160;2024-03-02T03:28:01;99812.75;;;11.35;100.00
4449;BME280;2237;51.870;6.160;2024-03-02T03:30:28;99814.38;;;11.38;100.00
4449;BME280;2237;51.870;6.160;2024-03-02T03:32:54;99827.78;;;11.29;100.00
4449;BME280;2237;51.870;6.160;2024-03-02T03:35:21;99824.25;;;11.10;100.00
4449;BME280;2237;51.870;6.160;2024-03-02T03:37:47;99818.06;;;11.12;100.00
4449;BME280;2237;51.870;6.160;2024-03-02T03:40:14;99815.28;;;11.17;100.00
4449;BME280;2237;51.870;6.160;2024-03-02T03:42:40;99814.19;;;11.01;100.00
4449;BME280;2237;51.870;6.160;2024-03-02T03:45:07;99825.09;;;10.89;100.00
4449;BME280;2237;51.870;6.160;2024-03-02T03:47:34;99839.53;;;10.75;100.00
4449;BME280;2237;51.870;6.160;2024-03-02T03:50:00;99839.94;;;10.87;100.00
4449;BME280;2237;51.870;6.160;2024-03-02T03:52:27;99827.75;;;10.65;100.00
4449;BME280;2237;51.870;6.160;2024-03-02T03:54:53;99841.22;;;10.76;100.00
4449;BME280;2237;51.870;6.160;2024-03-02T03:57:20;99857.31;;;10.64;100.00
4449;BME280;2237;51.870;6.160;2024-03-02T03:59:47;99858.13;;;10.43;100.00
4449;BME280;2237;51.870;6.160;2024-03-02T04:02:13;99865.69;;;10.26;100.00
4449;BME280;2237;51.870;6.160;2024-03-02T04:04:40;99868.41;;;10.23;100.00
4449;BME280;2237;51.870;6.160;2024-03-02T04:07:06;99860.72;;;10.20;100.00
4449;BME280;2237;51.870;6.160;2024-03-02T04:09:32;99851.31;;;10.39;100.00
4449;BME280;2237;51.870;6.160;2024-03-02T04:11:59;99865.69;;;10.26;100.00
4449;BME280;2237;51.870;6.160;2024-03-02T04:14:25;99872.94;;;10.18;100.00
4449;BME280;2237;51.870;6.160;2024-03-02T04:16:52;99889.69;;;10.09;100.00
4449;BME280;2237;51.870;6.160;2024-03-02T04:19:18;99883.19;;;9.96;100.00
4449;BME280;2237;51.870;6.160;2024-03-02T04:21:45;99878.28;;;10.13;100.00
4449;BME280;2237;51.870;6.160;2024-03-02T04:24:12;99877.56;;;10.08;100.00
4449;BME280;2237;51.870;6.160;2024-03-02T04:26:38;99879.75;;;9.96;100.00
4449;BME280;2237;51.870;6.160;2024-03-02T04:29:05;99863.25;;;10.21;100.00
4449;BME280;2237;51.870;6.160;2024-03-02T04:31:34;99853.47;;;10.28;100.00
4449;BME280;2237;51.870;6.160;2024-03-02T04:34:00;99847.06;;;10.37;100.00
4449;BME280;2237;51.870;6.160;2024-03-02T04:36:27;99855.31;;;10.48;100.00
4449;BME280;2237;51.870;6.160;2024-03-02T04:38:53;99857.47;;;10.37;100.00
4449;BME280;2237;51.870;6.160;2024-03-02T04:41:20;99868.44;;;10.21;100.00
4449;BME280;2237;51.870;6.160;2024-03-02T04:43:46;99885.31;;;10.35;100.00
4449;BME280;2237;51.870;6.160;2024-03-02T04:46:12;99876.13;;;10.25;100.00
4449;BME280;2237;51.870;6.160;2024-03-02T04:48:39;99877.22;;;10.42;100.00
4449;BME280;2237;51.870;6.160;2024-03-02T04:51:06;99868.06;;;10.55;100.00
4449;BME280;2237;51.870;6.160;2024-03-02T04:53:32;99874.84;;;10.59;100.00
4449;BME280;2237;51.870;6.160;2024-03-02T04:55:58;99886.13;;;10.60;100.00
4449;BME280;2237;51.870;6.160;2024-03-02T04:58:43;99898.00;;;10.67;100.00
4449;BME280;2237;51.870;6.160;2024-03-02T05:01:10;99891.41;;;10.58;100.00
4449;BME280;2237;51.870;6.160;2024-03-02T05:03:37;99878.38;;;10.58;100.00
4449;BME280;2237;51.870;6.160;2024-03-02T05:06:04;99887.72;;;10.64;100.00
4449;BME280;2237;51.870;6.160;2024-03-02T05:08:30;99887.03;;;10.59;100.00
4449;BME280;2237;51.870;6.160;2024-03-02T05:10:57;99875.09;;;10.30;100.00
4449;BME280;2237;51.870;6.160;2024-03-02T05:13:43;99902.44;;;10.42;100.00
4449;BME280;2237;51.870;6.160;2024-03-02T05:16:09;99904.22;;;10.40;100.00
4449;BME280;2237;51.870;6.160;2024-03-02T05:18:37;99898.16;;;10.39;100.00
4449;BME280;2237;51.870;6.160;2024-03-02T05:21:04;99901.47;;;10.44;100.00
4449;BME280;2237;51.870;6.160;2024-03-02T05:23:30;99908.19;;;10.27;100.00
4449;BME280;2237;51.870;6.160;2024-03-02T05:25:57;99907.09;;;10.32;100.00
4449;BME280;2237;51.870;6.160;2024-03-02T05:28:23;99912.41;;;10.29;100.00
4449;BME280;2237;51.870;6.160;2024-03-02T05:30:50;99904.53;;;10.31;100.00
4449;BME280;2237;51.870;6.160;2024-03-02T05:33:16;99897.47;;;10.34;100.00
4449;BME280;2237;51.870;6.160;2024-03-02T05:35:44;99904.28;;;10.38;100.00
4449;BME280;2237;51.870;6.160;2024-03-02T05:38:10;99905.84;;;10.42;100.00
4449;BME280;2237;51.870;6.160;2024-03-02T05:40:36;99911.88;;;10.44;100.00
4449;BME280;2237;51.870;6.160;2024-03-02T05:43:03;99912.94;;;10.39;100.00
4449;BME280;2237;51.870;6.160;2024-03-02T05:45:30;99897.59;;;10.31;100.00
4449;BME280;2237;51.870;6.160;2024-03-02T05:47:56;99906.03;;;10.38;100.00
4449;BME280;2237;51.870;6.160;2024-03-02T05:50:23;99915.59;;;10.37;100.00
4449;BME280;2237;51.870;6.160;2024-03-02T05:52:49;99912.31;;;10.32;100.00
4449;BME280;2237;51.870;6.160;2024-03-02T05:55:16;99927.28;;;10.26;100.00
4449;BME280;2237;51.870;6.160;2024-03-02T05:57:42;99926.28;;;10.30;100.00
4449;BME280;2237;51.870;6.160;2024-03-02T06:00:24;99924.38;;;10.35;100.00
4449;BME280;2237;51.870;6.160;2024-03-02T06:02:51;99920.22;;;10.29;100.00
4449;BME280;2237;51.870;6.160;2024-03-02T06:05:17;99925.38;;;10.31;100.00
4449;BME280;2237;51.870;6.160;2024-03-02T06:07:45;99926.19;;;10.33;100.00
4449;BME280;2237;51.870;6.160;2024-03-02T06:10:11;99922.72;;;10.32;100.00
4449;BME280;2237;51.870;6.160;2024-03-02T06:12:40;99932.28;;;10.32;100.00
4449;BME280;2237;51.870;6.160;2024-03-02T06:15:07;99921.34;;;10.22;100.00
4449;BME280;2237;51.870;6.160;2024-03-02T06:17:35;99936.16;;;10.20;100.00
4449;BME280;2237;51.870;6.160;2024-03-02T06:20:02;99927.41;;;10.23;100.00
4449;BME280;2237;51.870;6.160;2024-03-02T06:22:28;99937.91;;;10.19;100.00
4449;BME280;2237;51.870;6.160;2024-03-02T06:24:55;99941.44;;;10.18;100.00
4449;BME280;2237;51.870;6.160;2024-03-02T06:27:22;99942.44;;;10.14;100.00
4449;BME280;2237;51.870;6.160;2024-03-02T06:29:48;99938.16;;;10.12;100.00
4449;BME280;2237;51.870;6.160;2024-03-02T06:32:15;99952.22;;;10.06;100.00
4449;BME280;2237;51.870;6.160;2024-03-02T06:34:42;99948.00;;;10.02;100.00
4449;BME280;2237;51.870;6.160;2024-03-02T06:37:08;99947.34;;;9.97;100.00
4449;BME280;2237;51.870;6.160;2024-03-02T06:39:35;99944.16;;;9.89;100.00
4449;BME280;2237;51.870;6.160;2024-03-02T06:42:02;99952.78;;;9.90;100.00
4449;BME280;2237;51.870;6.160;2024-03-02T06:44:29;99955.38;;;9.90;100.00
4449;BME280;2237;51.870;6.160;2024-03-02T06:46:55;99959.03;;;9.84;100.00
4449;BME280;2237;51.870;6.160;2024-03-02T06:49:22;99957.44;;;9.80;100.00
4449;BME280;2237;51.870;6.160;2024-03-02T06:51:48;99962.59;;;9.82;100.00
4449;BME280;2237;51.870;6.160;2024-03-02T06:54:16;99960.84;;;9.82;100.00
4449;BME280;2237;51.870;6.160;2024-03-02T06:56:42;99963.50;;;9.81;100.00
4449;BME280;2237;51.870;6.160;2024-03-02T06:59:09;99959.88;;;9.85;100.00
4449;BME280;2237;51.870;6.160;2024-03-02T07:01:35;99964.28;;;9.83;100.00
4449;BME280;2237;51.870;6.160;2024-03-02T07:04:02;99966.78;;;9.86;100.00
4449;BME280;2237;51.870;6.160;2024-03-02T07:06:28;99969.31;;;9.87;100.00
4449;BME280;2237;51.870;6.160;2024-03-02T07:08:55;99964.28;;;9.83;100.00
4449;BME280;2237;51.870;6.160;2024-03-02T07:11:21;99978.84;;;9.88;100.00
4449;BME280;2237;51.870;6.160;2024-03-02T07:13:48;99982.13;;;9.93;100.00
4449;BME280;2237;51.870;6.160;2024-03-02T07:16:14;99975.97;;;9.96;100.00
4449;BME280;2237;51.870;6.160;2024-03-02T07:19:00;99981.19;;;9.96;100.00
4449;BME280;2237;51.870;6.160;2024-03-02T07:21:28;99985.38;;;10.00;100.00
4449;BME280;2237;51.870;6.160;2024-03-02T07:23:54;99986.25;;;10.00;100.00
4449;BME280;2237;51.870;6.160;2024-03-02T07:26:21;99991.38;;;10.02;100.00
4449;BME280;2237;51.870;6.160;2024-03-02T07:28:51;99988.53;;;10.09;100.00
4449;BME280;2237;51.870;6.160;2024-03-02T07:31:18;99990.81;;;10.20;100.00
4449;BME280;2237;51.870;6.160;2024-03-02T07:33:45;99992.09;;;10.33;100.00
4449;BME280;2237;51.870;6.160;2024-03-02T07:36:12;99998.56;;;10.46;100.00
4449;BME280;2237;51.870;6.160;2024-03-02T07:38:39;100001.00;;;10.51;100.00
4449;BME280;2237;51.870;6.160;2024-03-02T07:41:08;100003.66;;;10.49;100.00
4449;BME280;2237;51.870;6.160;2024-03-02T07:43:34;100001.09;;;10.48;100.00
4449;BME280;2237;51.870;6.160;2024-03-02T07:46:01;100003.59;;;10.51;100.00
4449;BME280;2237;51.870;6.160;2024-03-02T07:48:29;100005.28;;;10.53;100.00
4449;BME280;2237;51.870;6.160;2024-03-02T07:50:56;100020.25;;;10.47;100.00
4449;BME280;2237;51.870;6.160;2024-03-02T07:53:23;100014.94;;;10.50;100.00
4449;BME280;2237;51.870;6.160;2024-03-02T07:55:49;100010.69;;;10.47;100.00
4449;BME280;2237;51.870;6.160;2024-03-02T07:58:16;100027.66;;;10.57;100.00
4449;BME280;2237;51.870;6.160;2024-03-02T08:00:45;100026.19;;;10.50;100.00
4449;BME280;2237;51.870;6.160;2024-03-02T08:03:11;100017.25;;;10.57;100.00
4449;BME280;2237;51.870;6.160;2024-03-02T08:05:38;100025.53;;;10.68;100.00
4449;BME280;2237;51.870;6.160;2024-03-02T08:08:05;100031.59;;;10.69;100.00
4449;BME280;2237;51.870;6.160;2024-03-02T08:10:31;100023.75;;;10.70;100.00
4449;BME280;2237;51.870;6.160;2024-03-02T08:12:59;100024.09;;;10.85;100.00
4449;BME280;2237;51.870;6.160;2024-03-02T08:15:26;100029.09;;;10.91;100.00
4449;BME280;2237;51.870;6.160;2024-03-02T08:17:53;100032.38;;;10.96;100.00
4449;BME280;2237;51.870;6.160;2024-03-02T08:20:19;100019.13;;;11.02;100.00
4449;BME280;2237;51.870;6.160;2024-03-02T08:22:46;100029.53;;;11.02;100.00
4449;BME280;2237;51.870;6.160;2024-03-02T08:25:13;100016.06;;;10.91;100.00
4449;BME280;2237;51.870;6.160;2024-03-02T08:27:40;100023.28;;;11.06;100.00
4449;BME280;2237;51.870;6.160;2024-03-02T08:30:07;100022.41;;;11.07;100.00
4449;BME280;2237;51.870;6.160;2024-03-02T08:32:34;100022.84;;;11.18;100.00
4449;BME280;2237;51.870;6.160;2024-03-02T08:35:01;100018.72;;;11.12;100.00
4449;BME280;2237;51.870;6.160;2024-03-02T08:37:27;100009.25;;;11.10;100.00
4449;BME280;2237;51.870;6.160;2024-03-02T08:39:54;100018.59;;;11.15;100.00
4449;BME280;2237;51.870;6.160;2024-03-02T08:42:21;100024.25;;;11.26;100.00
4449;BME280;2237;51.870;6.160;2024-03-02T08:44:48;100016.16;;;11.34;100.00
4449;BME280;2237;51.870;6.160;2024-03-02T08:47:15;100011.19;;;11.28;100.00
4449;BME280;2237;51.870;6.160;2024-03-02T08:49:41;100019.88;;;11.27;100.00
4449;BME280;2237;51.870;6.160;2024-03-02T08:52:09;100027.47;;;11.33;100.00
4449;BME280;2237;51.870;6.160;2024-03-02T08:54:36;100024.19;;;11.28;100.00
4449;BME280;2237;51.870;6.160;2024-03-02T08:57:02;100020.97;;;11.21;100.00
4449;BME280;2237;51.870;6.160;2024-03-02T08:59:29;100016.63;;;11.22;100.00
4449;BME280;2237;51.870;6.160;2024-03-02T09:01:56;100023.41;;;11.26;100.00
4449;BME280;2237;51.870;6.160;2024-03-02T09:04:22;100030.88;;;11.35;99.63
4449;BME280;2237;51.870;6.160;2024-03-02T09:06:53;100028.38;;;11.32;99.38
4449;BME280;2237;51.870;6.160;2024-03-02T09:09:19;100037.00;;;11.34;97.11
4449;BME280;2237;51.870;6.160;2024-03-02T09:11:46;100037.16;;;11.29;97.77
4449;BME280;2237;51.870;6.160;2024-03-02T09:14:13;100028.97;;;11.40;97.67
4449;BME280;2237;51.870;6.160;2024-03-02T09:16:41;100028.47;;;11.52;96.96
4449;BME280;2237;51.870;6.160;2024-03-02T09:19:08;100014.75;;;11.47;95.63
4449;BME280;2237;51.870;6.160;2024-03-02T09:21:35;100037.72;;;11.61;94.03
4449;BME280;2237;51.870;6.160;2024-03-02T09:24:02;100031.50;;;11.42;93.89
4449;BME280;2237;51.870;6.160;2024-03-02T09:26:29;100023.94;;;11.57;92.48
4449;BME280;2237;51.870;6.160;2024-03-02T09:28:56;100032.50;;;11.61;93.26
4449;BME280;2237;51.870;6.160;2024-03-02T09:31:22;100020.28;;;11.61;93.07
4449;BME280;2237;51.870;6.160;2024-03-02T09:33:49;100029.16;;;11.79;91.96
4449;BME280;2237;51.870;6.160;2024-03-02T09:36:20;100030.56;;;11.87;91.30
4449;BME280;2237;51.870;6.160;2024-03-02T09:38:47;100029.72;;;11.87;89.95
4449;BME280;2237;51.870;6.160;2024-03-02T09:41:14;100028.44;;;11.75;90.38
4449;BME280;2237;51.870;6.160;2024-03-02T09:43:41;100036.75;;;11.85;90.86
4449;BME280;2237;51.870;6.160;2024-03-02T09:46:11;100030.16;;;11.76;91.08
4449;BME280;2237;51.870;6.160;2024-03-02T09:48:37;100042.63;;;11.68;91.01
4449;BME280;2237;51.870;6.160;2024-03-02T09:51:05;100035.97;;;11.83;89.42
4449;BME280;2237;51.870;6.160;2024-03-02T09:53:32;100030.72;;;12.05;89.43
4449;BME280;2237;51.870;6.160;2024-03-02T09:56:00;100028.31;;;12.00;85.47
4449;BME280;2237;51.870;6.160;2024-03-02T09:58:27;100020.63;;;11.97;85.21
4449;BME280;2237;51.870;6.160;2024-03-02T10:00:53;100026.44;;;12.04;84.32
4449;BME280;2237;51.870;6.160;2024-03-02T10:03:20;100036.06;;;12.02;85.41
4449;BME280;2237;51.870;6.160;2024-03-02T10:05:48;100028.38;;;11.99;86.58
4449;BME280;2237;51.870;6.160;2024-03-02T10:08:15;100022.38;;;11.97;87.58
4449;BME280;2237;51.870;6.160;2024-03-02T10:10:41;100020.28;;;12.05;88.45
4449;BME280;2237;51.870;6.160;2024-03-02T10:13:11;100012.78;;;11.97;87.39
4449;BME280;2237;51.870;6.160;2024-03-02T10:15:39;100009.16;;;12.01;87.75
4449;BME280;2237;51.870;6.160;2024-03-02T10:18:09;100017.16;;;11.97;87.25
4449;BME280;2237;51.870;6.160;2024-03-02T10:20:40;100025.09;;;12.15;87.52
4449;BME280;2237;51.870;6.160;2024-03-02T10:23:14;100018.41;;;12.08;88.46
4449;BME280;2237;51.870;6.160;2024-03-02T10:25:42;100016.41;;;12.15;88.59
4449;BME280;2237;51.870;6.160;2024-03-02T10:28:22;100010.97;;;12.19;87.01
4449;BME280;2237;51.870;6.160;2024-03-02T10:30:49;100024.16;;;12.36;86.21
4449;BME280;2237;51.870;6.160;2024-03-02T10:33:17;100026.47;;;12.44;84.73
4449;BME280;2237;51.870;6.160;2024-03-02T10:35:44;100022.88;;;12.46;81.57
4449;BME280;2237;51.870;6.160;2024-03-02T10:38:11;100017.69;;;12.45;79.60
4449;BME280;2237;51.870;6.160;2024-03-02T10:40:37;100015.81;;;12.48;79.63
4449;BME280;2237;51.870;6.160;2024-03-02T10:43:04;100015.75;;;12.50;80.11
4449;BME280;2237;51.870;6.160;2024-03-02T10:45:32;100005.25;;;12.52;80.34
4449;BME280;2237;51.870;6.160;2024-03-02T10:48:01;100007.53;;;12.59;80.61
4449;BME280;2237;51.870;6.160;2024-03-02T10:50:29;100010.53;;;12.70;79.77
4449;BME280;2237;51.870;6.160;2024-03-02T10:52:56;100003.97;;;12.80;79.31
4449;BME280;2237;51.870;6.160;2024-03-02T10:55:22;100006.06;;;12.72;79.93
4449;BME280;2237;51.870;6.160;2024-03-02T10:57:54;99997.97;;;12.78;79.26
4449;BME280;2237;51.870;6.160;2024-03-02T11:00:25;99999.81;;;12.95;79.51
4449;BME280;2237;51.870;6.160;2024-03-02T11:03:05;99997.78;;;13.01;79.61
4449;BME280;2237;51.870;6.160;2024-03-02T11:05:36;100007.31;;;13.02;77.62
4449;BME280;2237;51.870;6.160;2024-03-02T11:08:07;100001.16;;;13.03;76.25
4449;BME280;2237;51.870;6.160;2024-03-02T11:10:37;99994.56;;;13.34;74.29
4449;BME280;2237;51.870;6.160;2024-03-02T11:13:14;99998.03;;;13.16;72.94
4449;BME280;2237;51.870;6.160;2024-03-02T11:15:43;99990.00;;;13.20;72.41
4449;BME280;2237;51.870;6.160;2024-03-02T11:18:10;99986.09;;;13.29;71.73
4449;BME280;2237;51.870;6.160;2024-03-02T11:20:39;99987.44;;;13.37;71.16
4449;BME280;2237;51.870;6.160;2024-03-02T11:23:07;99979.06;;;13.48;71.50
4449;BME280;2237;51.870;6.160;2024-03-02T11:25:34;99982.00;;;13.59;70.16
4449;BME280;2237;51.870;6.160;2024-03-02T11:28:07;99990.66;;;13.61;69.54
4449;BME280;2237;51.870;6.160;2024-03-02T11:33:06;99982.13;;;13.75;67.49
4449;BME280;2237;51.870;6.160;2024-03-02T11:35:43;99983.13;;;13.72;68.35
4449;BME280;2237;51.870;6.160;2024-03-02T11:38:13;99983.44;;;13.66;68.77
4449;BME280;2237;51.870;6.160;2024-03-02T11:40:40;99981.03;;;13.79;69.87
4449;BME280;2237;51.870;6.160;2024-03-02T11:43:07;99976.75;;;13.78;68.24
4449;BME280;2237;51.870;6.160;2024-03-02T11:45:37;99973.44;;;13.91;67.17
4449;BME280;2237;51.870;6.160;2024-03-02T11:48:11;99969.81;;;14.11;66.84
4449;BME280;2237;51.870;6.160;2024-03-02T11:50:47;99977.41;;;14.34;65.29
4449;BME280;2237;51.870;6.160;2024-03-02T11:53:14;99976.84;;;14.28;63.80
4449;BME280;2237;51.870;6.160;2024-03-02T11:55:41;99973.00;;;14.35;63.30
4449;BME280;2237;51.870;6.160;2024-03-02T11:58:07;99968.06;;;14.29;65.81
4449;BME280;2237;51.870;6.160;2024-03-02T12:00:34;99975.00;;;14.30;67.81
4449;BME280;2237;51.870;6.160;2024-03-02T12:03:04;99976.22;;;14.40;68.07
4449;BME280;2237;51.870;6.160;2024-03-02T12:05:31;99966.53;;;14.42;69.28
4449;BME280;2237;51.870;6.160;2024-03-02T12:07:59;99972.84;;;14.38;70.03
4449;BME280;2237;51.870;6.160;2024-03-02T12:10:26;99960.97;;;14.31;68.66
4449;BME280;2237;51.870;6.160;2024-03-02T12:13:00;99955.28;;;14.40;68.05
4449;BME280;2237;51.870;6.160;2024-03-02T12:15:28;99949.56;;;14.49;69.03
4449;BME280;2237;51.870;6.160;2024-03-02T12:17:56;99949.94;;;14.58;67.54
4449;BME280;2237;51.870;6.160;2024-03-02T12:20:24;99947.69;;;14.68;66.51
4449;BME280;2237;51.870;6.160;2024-03-02T12:22:52;99940.47;;;14.56;66.21
4449;BME280;2237;51.870;6.160;2024-03-02T12:25:23;99954.81;;;14.82;65.84
4449;BME280;2237;51.870;6.160;2024-03-02T12:27:50;99944.75;;;14.90;64.62
4449;BME280;2237;51.870;6.160;2024-03-02T12:30:18;99938.50;;;14.92;63.97
4449;BME280;2237;51.870;6.160;2024-03-02T12:32:45;99940.88;;;14.97;65.19
4449;BME280;2237;51.870;6.160;2024-03-02T12:35:12;99952.03;;;15.16;64.89
4449;BME280;2237;51.870;6.160;2024-03-02T12:37:48;99942.25;;;15.19;64.15
4449;BME280;2237;51.870;6.160;2024-03-02T12:40:16;99946.56;;;15.20;62.92
4449;BME280;2237;51.870;6.160;2024-03-02T12:42:47;99943.69;;;15.25;63.26
4449;BME280;2237;51.870;6.160;2024-03-02T12:45:15;99928.00;;;15.39;62.06
4449;BME280;2237;51.870;6.160;2024-03-02T12:47:42;99940.97;;;15.58;60.74
4449;BME280;2237;51.870;6.160;2024-03-02T12:50:09;99939.13;;;15.90;59.68
4449;BME280;2237;51.870;6.160;2024-03-02T12:52:36;99932.47;;;16.28;58.16
4449;BME280;2237;51.870;6.160;2024-03-02T12:55:05;99926.00;;;16.48;55.56
4449;BME280;2237;51.870;6.160;2024-03-02T12:57:33;99922.94;;;16.55;55.05
4449;BME280;2237;51.870;6.160;2024-03-02T13:00:05;99930.75;;;16.71;53.55
4449;BME280;2237;51.870;6.160;2024-03-02T13:02:36;99914.19;;;16.83;51.87
4449;BME280;2237;51.870;6.160;2024-03-02T13:05:03;99919.88;;;17.04;51.48
4449;BME280;2237;51.870;6.160;2024-03-02T13:07:30;99911.78;;;17.21;50.75
4449;BME280;2237;51.870;6.160;2024-03-02T13:09:56;99918.59;;;17.37;50.88
4449;BME280;2237;51.870;6.160;2024-03-02T13:12:24;99907.00;;;17.40;50.97
4449;BME280;2237;51.870;6.160;2024-03-02T13:14:54;99909.19;;;17.33;50.51
4449;BME280;2237;51.870;6.160;2024-03-02T13:17:20;99919.88;;;17.18;51.07
4449;BME280;2237;51.870;6.160;2024-03-02T13:19:54;99897.53;;;17.37;50.88
4449;BME280;2237;51.870;6.160;2024-03-02T13:22:21;99907.41;;;17.34;50.11